createdAt,value
2022-12-18T00:02:20.133Z,8.56
2022-12-18T00:04:47.073Z,8.66
2022-12-18T00:07:21.484Z,8.69
2022-12-18T00:09:55.933Z,8.64
2022-12-18T00:12:30.004Z,8.58
2022-12-18T00:15:06.917Z,8.56
2022-12-18T00:17:33.805Z,8.96
2022-12-18T00:20:04.721Z,8.72
2022-12-18T00:22:31.526Z,8.78
2022-12-18T00:24:58.281Z,8.85
2022-12-18T00:27:25.170Z,8.69
2022-12-18T00:29:51.916Z,8.59
2022-12-18T00:32:21.760Z,8.58
2022-12-18T00:34:54.851Z,8.57
2022-12-18T00:37:22.601Z,8.66
2022-12-18T00:39:49.749Z,8.50
2022-12-18T00:42:35.002Z,8.49
2022-12-18T00:45:01.888Z,8.31
2022-12-18T00:47:28.835Z,8.46
2022-12-18T00:49:55.785Z,8.49
2022-12-18T00:52:22.573Z,8.64
2022-12-18T00:54:49.369Z,8.75
2022-12-18T00:57:17.525Z,8.74
2022-12-18T00:59:45.751Z,8.94
2022-12-18T01:02:14.242Z,8.73
2022-12-18T01:04:43.689Z,8.91
2022-12-18T01:07:10.695Z,8.72
2022-12-18T01:09:37.481Z,8.68
2022-12-18T01:12:04.540Z,8.47
2022-12-18T01:14:31.269Z,8.60
2022-12-18T01:17:01.060Z,8.60
2022-12-18T01:19:32.326Z,8.31
2022-12-18T01:22:02.573Z,8.22
2022-12-18T01:24:31.249Z,8.28
2022-12-18T01:27:05.883Z,8.37
2022-12-18T01:29:35.486Z,8.13
2022-12-18T01:32:11.336Z,8.08
2022-12-18T01:34:41.377Z,8.08
2022-12-18T01:37:12.640Z,8.09
2022-12-18T01:39:44.499Z,7.92
2022-12-18T01:42:16.407Z,7.94
2022-12-18T01:45:17.645Z,7.80
2022-12-18T01:47:55.823Z,7.72
2022-12-18T01:50:53.384Z,7.79
2022-12-18T01:53:52.307Z,7.81
2022-12-18T01:56:23.516Z,7.78
2022-12-18T01:59:03.431Z,7.64
2022-12-18T02:01:39.503Z,7.59
2022-12-18T02:04:23.888Z,7.65
2022-12-18T02:07:04.965Z,7.59
2022-12-18T02:09:44.993Z,7.40
2022-12-18T02:12:20.740Z,7.38
2022-12-18T02:15:16.999Z,7.37
2022-12-18T02:17:55.259Z,7.47
2022-12-18T02:20:37.617Z,7.42
2022-12-18T02:23:50.034Z,7.36
2022-12-18T02:26:20.128Z,7.27
2022-12-18T02:29:08.662Z,7.20
2022-12-18T02:31:59.743Z,7.47
2022-12-18T02:34:32.700Z,7.38
2022-12-18T02:37:03.272Z,7.47
2022-12-18T02:39:32.230Z,7.37
2022-12-18T02:42:00.712Z,7.35
2022-12-18T02:44:27.665Z,7.27
2022-12-18T02:46:55.592Z,7.34
2022-12-18T02:49:43.769Z,7.38
2022-12-18T02:52:32.234Z,7.23
2022-12-18T02:55:15.074Z,7.28
2022-12-18T02:57:51.587Z,7.16
2022-12-18T03:00:37.201Z,7.20
2022-12-18T03:03:12.869Z,7.18
2022-12-18T03:06:10.663Z,7.27
2022-12-18T03:08:48.785Z,7.29
2022-12-18T03:11:18.381Z,7.33
2022-12-18T03:13:51.386Z,7.32
2022-12-18T03:16:28.667Z,7.37
2022-12-18T03:19:00.345Z,7.33
2022-12-18T03:21:41.133Z,7.41
2022-12-18T03:24:11.353Z,7.40
2022-12-18T03:26:52.234Z,7.46
2022-12-18T03:29:45.517Z,7.55
2022-12-18T03:32:23.114Z,7.48
2022-12-18T03:34:54.837Z,7.49
2022-12-18T03:37:27.488Z,7.37
2022-12-18T03:40:02.898Z,7.38
2022-12-18T03:42:45.621Z,7.47
2022-12-18T03:45:28.963Z,7.23
2022-12-18T03:48:12.295Z,7.30
2022-12-18T03:50:57.325Z,7.24
2022-12-18T03:53:36.036Z,7.14
2022-12-18T03:56:11.527Z,7.09
2022-12-18T03:58:47.605Z,7.16
2022-12-18T04:01:20.925Z,7.15
2022-12-18T04:03:50.701Z,7.13
2022-12-18T04:06:18.297Z,7.11
2022-12-18T04:08:46.039Z,7.34
2022-12-18T04:11:12.817Z,7.25
2022-12-18T04:13:46.103Z,7.30
2022-12-18T04:16:12.907Z,7.27
2022-12-18T04:18:40.335Z,7.46
2022-12-18T04:21:07.305Z,7.34
2022-12-18T04:23:34.078Z,7.29
2022-12-18T04:26:00.968Z,7.22
2022-12-18T04:28:27.687Z,7.22
2022-12-18T04:30:54.407Z,7.23
2022-12-18T04:33:21.155Z,7.13
2022-12-18T04:35:48.152Z,7.25
2022-12-18T04:38:15.188Z,7.30
2022-12-18T04:40:46.680Z,7.46
2022-12-18T04:43:14.024Z,7.47
2022-12-18T04:45:40.843Z,7.27
2022-12-18T04:48:07.829Z,7.50
2022-12-18T04:50:34.705Z,7.69
2022-12-18T04:53:04.529Z,7.66
2022-12-18T04:55:40.815Z,7.49
2022-12-18T04:58:22.427Z,7.46
2022-12-18T05:00:53.665Z,7.54
2022-12-18T05:03:20.441Z,7.47
2022-12-18T05:05:51.897Z,7.43
2022-12-18T05:08:21.734Z,7.48
2022-12-18T05:11:01.123Z,7.49
2022-12-18T05:13:28.998Z,7.39
2022-12-18T05:16:02.643Z,7.33
2022-12-18T05:18:36.662Z,7.37
2022-12-18T05:21:22.775Z,7.44
2022-12-18T05:23:54.090Z,7.44
2022-12-18T05:26:29.947Z,7.56
2022-12-18T05:28:56.892Z,7.61
2022-12-18T05:31:24.008Z,7.54
2022-12-18T05:33:50.711Z,7.44
2022-12-18T05:36:18.898Z,7.36
2022-12-18T05:38:45.948Z,7.27
2022-12-18T05:41:14.286Z,7.31
2022-12-18T05:43:41.781Z,7.49
2022-12-18T05:46:14.429Z,7.44
2022-12-18T05:48:43.230Z,7.57
2022-12-18T05:51:16.134Z,7.49
2022-12-18T05:53:43.843Z,7.30
2022-12-18T05:56:14.462Z,7.31
2022-12-18T05:58:41.557Z,7.34
2022-12-18T06:01:20.489Z,7.41
2022-12-18T06:03:51.152Z,7.48
2022-12-18T06:06:24.246Z,7.48
2022-12-18T06:08:52.011Z,7.45
2022-12-18T06:11:26.942Z,7.40
2022-12-18T06:13:58.963Z,7.43
2022-12-18T06:16:27.159Z,7.31
2022-12-18T06:19:09.897Z,7.31
2022-12-18T06:21:45.610Z,7.24
2022-12-18T06:24:12.578Z,7.23
2022-12-18T06:26:40.339Z,7.06
2022-12-18T06:29:07.089Z,6.97
2022-12-18T06:31:34.018Z,6.97
2022-12-18T06:34:03.921Z,7.09
2022-12-18T06:36:30.831Z,7.05
2022-12-18T06:39:00.072Z,7.10
2022-12-18T06:41:27.113Z,7.11
2022-12-18T06:43:58.259Z,6.93
2022-12-18T06:46:29.859Z,7.00
2022-12-18T06:49:05.789Z,7.11
2022-12-18T06:51:32.706Z,7.13
2022-12-18T06:53:59.471Z,6.97
2022-12-18T06:56:26.751Z,6.81
2022-12-18T06:58:53.989Z,6.74
2022-12-18T07:01:23.717Z,6.71
2022-12-18T07:03:57.979Z,6.77
2022-12-18T07:06:27.088Z,6.81
2022-12-18T07:08:56.816Z,6.91
2022-12-18T07:11:29.618Z,6.93
2022-12-18T07:14:08.393Z,6.82
2022-12-18T07:16:35.342Z,6.76
2022-12-18T07:19:02.304Z,6.82
2022-12-18T07:21:32.204Z,6.85
2022-12-18T07:24:01.544Z,6.78
2022-12-18T07:26:28.341Z,6.83
2022-12-18T07:28:58.732Z,6.97
2022-12-18T07:31:26.637Z,6.89
2022-12-18T07:33:56.587Z,6.91
2022-12-18T07:36:24.529Z,6.92
2022-12-18T07:38:53.128Z,7.00
2022-12-18T07:41:21.390Z,6.91
2022-12-18T07:43:52.172Z,6.89
2022-12-18T07:46:19.489Z,6.82
2022-12-18T07:48:49.693Z,7.03
2022-12-18T07:51:23.294Z,7.25
2022-12-18T07:53:52.477Z,7.13
2022-12-18T07:56:29.002Z,7.10
2022-12-18T07:59:08.946Z,7.30
2022-12-18T08:01:36.176Z,7.37
2022-12-18T08:04:04.354Z,7.16
2022-12-18T08:06:35.506Z,7.11
2022-12-18T08:09:02.284Z,7.29
2022-12-18T08:11:34.307Z,7.30
2022-12-18T08:14:01.100Z,7.27
2022-12-18T08:16:29.494Z,7.26
2022-12-18T08:18:58.696Z,7.29
2022-12-18T08:21:28.433Z,7.34
2022-12-18T08:23:59.364Z,7.82
2022-12-18T08:26:28.609Z,7.85
2022-12-18T08:29:00.535Z,7.78
2022-12-18T08:31:34.660Z,7.64
2022-12-18T08:34:05.560Z,7.75
2022-12-18T08:36:33.707Z,7.83
2022-12-18T08:39:11.101Z,7.69
2022-12-18T08:41:37.875Z,8.12
2022-12-18T08:44:28.164Z,8.39
2022-12-18T08:47:01.875Z,8.26
2022-12-18T08:49:31.635Z,8.47
2022-12-18T08:52:10.594Z,8.49
2022-12-18T08:54:40.353Z,8.72
2022-12-18T08:57:07.154Z,8.77
2022-12-18T08:59:48.212Z,8.54
2022-12-18T09:02:15.227Z,8.55
2022-12-18T09:04:57.088Z,9.33
2022-12-18T09:07:28.981Z,9.61
2022-12-18T09:09:58.155Z,9.16
2022-12-18T09:12:27.886Z,8.63
2022-12-18T09:14:58.427Z,8.54
2022-12-18T09:17:25.299Z,9.32
2022-12-18T09:20:01.691Z,9.41
2022-12-18T09:22:30.759Z,9.19
2022-12-18T09:25:00.023Z,9.13
2022-12-18T09:27:29.998Z,9.19
2022-12-18T09:29:56.865Z,9.22
2022-12-18T09:32:35.663Z,9.19
2022-12-18T09:35:03.039Z,8.86
2022-12-18T09:37:29.824Z,8.63
2022-12-18T09:40:03.135Z,8.82
2022-12-18T09:42:35.009Z,8.86
2022-12-18T09:45:03.612Z,9.21
2022-12-18T09:47:39.937Z,9.06
2022-12-18T09:50:25.204Z,9.29
2022-12-18T09:52:57.802Z,9.05
2022-12-18T09:55:36.671Z,9.19
2022-12-18T09:58:17.943Z,9.06
2022-12-18T10:00:48.474Z,8.82
2022-12-18T10:06:19.491Z,8.87
2022-12-18T10:09:11.726Z,8.73
2022-12-18T10:11:52.542Z,8.86
2022-12-18T10:14:36.379Z,9.71
2022-12-18T10:17:56.194Z,10.03
2022-12-18T10:20:51.335Z,10.22
2022-12-18T10:23:27.222Z,10.25
2022-12-18T10:26:13.927Z,10.51
2022-12-18T10:32:31.345Z,9.93
2022-12-18T10:35:00.805Z,10.18
2022-12-18T10:37:30.535Z,10.75
2022-12-18T10:40:18.302Z,9.99
2022-12-18T10:43:16.475Z,10.28
2022-12-18T10:46:00.299Z,10.06
2022-12-18T10:55:45.550Z,9.65
2022-12-18T10:58:38.893Z,9.78
2022-12-18T11:01:14.384Z,9.69
2022-12-18T11:03:50.209Z,9.67
2022-12-18T11:06:25.737Z,9.59
2022-12-18T11:09:29.311Z,9.79
2022-12-18T11:12:00.370Z,10.38
2022-12-18T11:14:32.015Z,10.38
2022-12-18T11:20:00.729Z,10.18
2022-12-18T11:22:34.964Z,9.78
2022-12-18T11:28:35.450Z,9.88
2022-12-18T11:34:30.054Z,9.73
2022-12-18T11:44:02.233Z,9.72
2022-12-18T11:46:39.112Z,9.58
2022-12-18T11:49:18.649Z,9.51
2022-12-18T11:51:52.848Z,9.63
2022-12-18T11:54:19.686Z,9.66
2022-12-18T11:56:50.179Z,9.66
2022-12-18T11:59:44.060Z,9.34
2022-12-18T12:02:38.709Z,9.88
2022-12-18T12:05:42.291Z,9.68
2022-12-18T12:08:25.423Z,9.98
2022-12-18T12:11:14.483Z,10.26
2022-12-18T12:17:24.205Z,10.17
2022-12-18T12:20:12.684Z,10.40
2022-12-18T12:23:14.701Z,9.97
2022-12-18T12:25:47.900Z,9.71
2022-12-18T12:28:36.161Z,9.60
2022-12-18T12:31:18.305Z,9.75
2022-12-18T12:33:53.215Z,9.91
2022-12-18T12:36:36.623Z,10.22
2022-12-18T12:39:14.789Z,10.13
2022-12-18T12:42:06.526Z,10.16
2022-12-18T12:44:44.165Z,10.05
2022-12-18T12:50:40.054Z,9.87
2022-12-18T12:53:25.036Z,9.91
2022-12-18T12:56:06.165Z,9.92
2022-12-18T12:58:40.896Z,10.03
2022-12-18T13:01:55.778Z,10.06
2022-12-18T13:04:39.495Z,9.92
2022-12-18T13:10:17.225Z,9.85
2022-12-18T13:13:05.756Z,9.99
2022-12-18T13:15:55.812Z,10.26
2022-12-18T13:18:25.459Z,10.35
2022-12-18T13:21:22.469Z,10.51
2022-12-18T13:23:49.219Z,10.40
2022-12-18T13:26:20.855Z,10.23
2022-12-18T13:28:58.790Z,9.96
2022-12-18T13:31:45.168Z,10.15
2022-12-18T13:34:26.065Z,9.96
2022-12-18T13:36:56.115Z,10.05
2022-12-18T13:39:37.316Z,10.10
2022-12-18T13:42:10.227Z,10.07
2022-12-18T13:44:41.439Z,9.98
2022-12-18T13:47:41.145Z,10.16
2022-12-18T13:50:35.465Z,10.63
2022-12-18T13:53:06.076Z,10.53
2022-12-18T13:55:33.521Z,10.22
2022-12-18T13:58:09.794Z,9.93
2022-12-18T14:00:39.832Z,10.03
2022-12-18T14:03:25.384Z,9.70
2022-12-18T14:06:23.907Z,9.80
2022-12-18T14:08:55.689Z,9.65
2022-12-18T14:11:28.426Z,10.05
2022-12-18T14:13:59.131Z,10.11
2022-12-18T14:16:30.087Z,9.88
2022-12-18T14:19:14.862Z,10.14
2022-12-18T14:21:48.281Z,9.63
2022-12-18T14:24:19.370Z,9.51
2022-12-18T14:26:48.673Z,9.52
2022-12-18T14:29:29.183Z,9.43
2022-12-18T14:32:21.404Z,9.51
2022-12-18T14:34:51.337Z,9.39
2022-12-18T14:37:29.074Z,9.72
2022-12-18T14:40:10.834Z,9.98
2022-12-18T14:42:40.510Z,9.98
2022-12-18T14:45:41.676Z,10.26
2022-12-18T14:48:19.111Z,10.29
2022-12-18T14:51:17.100Z,10.09
2022-12-18T14:54:12.617Z,9.76
2022-12-18T14:56:55.676Z,9.53
2022-12-18T14:59:25.355Z,9.67
2022-12-18T15:02:01.360Z,9.50
2022-12-18T15:04:36.360Z,9.46
2022-12-18T15:07:20.258Z,9.42
2022-12-18T15:10:14.011Z,9.17
2022-12-18T15:12:56.780Z,9.26
2022-12-18T15:15:38.675Z,9.57
2022-12-18T15:18:14.098Z,9.44
2022-12-18T15:20:46.796Z,9.37
2022-12-18T15:23:23.565Z,9.15
2022-12-18T15:26:11.612Z,9.06
2022-12-18T15:28:59.776Z,8.90
2022-12-18T15:31:32.836Z,8.77
2022-12-18T15:34:03.002Z,8.72
2022-12-18T15:36:31.158Z,8.66
2022-12-18T15:39:05.218Z,8.57
2022-12-18T15:41:38.094Z,8.45
2022-12-18T15:44:22.830Z,8.40
2022-12-18T15:46:49.681Z,8.25
2022-12-18T15:49:16.429Z,8.22
2022-12-18T15:51:44.755Z,8.35
2022-12-18T15:54:17.222Z,8.29
2022-12-18T15:57:19.278Z,8.35
2022-12-18T15:59:45.979Z,8.31
2022-12-18T16:02:18.555Z,8.25
2022-12-18T16:04:46.935Z,8.06
2022-12-18T16:07:25.596Z,8.17
2022-12-18T16:09:57.214Z,8.17
2022-12-18T16:12:28.827Z,8.18
2022-12-18T16:14:58.868Z,8.11
2022-12-18T16:17:27.029Z,8.01
2022-12-18T16:19:56.772Z,7.97
2022-12-18T16:22:31.551Z,7.81
2022-12-18T16:25:06.841Z,7.78
2022-12-18T16:27:34.902Z,7.71
2022-12-18T16:30:01.739Z,7.67
2022-12-18T16:32:28.583Z,7.71
2022-12-18T16:35:01.595Z,7.76
2022-12-18T16:37:28.421Z,7.77
2022-12-18T16:39:57.469Z,7.81
2022-12-18T16:42:26.700Z,7.58
2022-12-18T16:44:53.545Z,7.42
2022-12-18T16:47:21.907Z,7.37
2022-12-18T16:49:51.985Z,7.44
2022-12-18T16:52:25.444Z,7.35
2022-12-18T16:54:52.307Z,7.28
2022-12-18T16:57:21.106Z,7.16
2022-12-18T16:59:50.808Z,7.07
2022-12-18T17:02:32.591Z,7.14
2022-12-18T17:05:02.404Z,7.24
2022-12-18T17:07:32.802Z,7.22
2022-12-18T17:10:00.050Z,7.09
2022-12-18T17:12:27.601Z,7.01
2022-12-18T17:14:54.758Z,7.01
2022-12-18T17:17:24.318Z,6.99
2022-12-18T17:19:54.721Z,7.04
2022-12-18T17:22:25.487Z,7.04
2022-12-18T17:24:55.966Z,7.01
2022-12-18T17:27:26.110Z,7.05
2022-12-18T17:29:58.388Z,6.99
2022-12-18T17:32:28.509Z,7.12
2022-12-18T17:35:06.730Z,7.01
2022-12-18T17:37:34.334Z,6.99
2022-12-18T17:40:02.521Z,6.90
2022-12-18T17:42:29.613Z,6.95
2022-12-18T17:44:56.443Z,6.84
2022-12-18T17:47:23.367Z,6.69
2022-12-18T17:49:54.101Z,6.72
2022-12-18T17:52:26.996Z,6.68
2022-12-18T17:54:53.750Z,6.60
2022-12-18T17:57:20.809Z,6.56
2022-12-18T17:59:49.902Z,6.72
2022-12-18T18:02:17.780Z,6.62
2022-12-18T18:04:44.779Z,6.72
2022-12-18T18:07:11.796Z,6.55
2022-12-18T18:09:38.672Z,6.71
2022-12-18T18:12:25.498Z,6.73
2022-12-18T18:14:54.922Z,6.62
2022-12-18T18:17:23.213Z,6.50
2022-12-18T18:19:50.036Z,6.51
2022-12-18T18:22:17.152Z,6.54
2022-12-18T18:24:47.206Z,6.40
2022-12-18T18:27:14.337Z,6.36
2022-12-18T18:29:41.184Z,6.51
2022-12-18T18:32:08.152Z,6.44
2022-12-18T18:34:35.340Z,6.59
2022-12-18T18:37:03.260Z,6.48
2022-12-18T18:39:30.695Z,6.37
2022-12-18T18:41:57.758Z,6.30
2022-12-18T18:44:26.148Z,6.31
2022-12-18T18:46:58.606Z,6.34
2022-12-18T18:49:31.302Z,6.28
2022-12-18T18:52:05.542Z,6.08
2022-12-18T18:54:32.559Z,6.10
2022-12-18T18:59:47.114Z,6.17
2022-12-18T19:02:15.875Z,6.13
2022-12-18T19:04:46.869Z,6.12
2022-12-18T19:07:29.702Z,6.11
2022-12-18T19:10:04.060Z,6.14
2022-12-18T19:13:07.104Z,6.17
2022-12-18T19:15:34.519Z,6.05
2022-12-18T19:18:01.973Z,6.03
2022-12-18T19:20:31.415Z,6.11
2022-12-18T19:22:59.658Z,6.07
2022-12-18T19:25:38.451Z,6.22
2022-12-18T19:28:12.034Z,6.41
2022-12-18T19:30:55.340Z,6.53
2022-12-18T19:33:45.962Z,6.67
2022-12-18T19:36:22.001Z,6.44
2022-12-18T19:38:50.567Z,6.44
2022-12-18T19:41:20.710Z,6.27
2022-12-18T19:43:48.770Z,6.06
2022-12-18T19:46:17.944Z,5.99
2022-12-18T19:48:45.582Z,6.02
2022-12-18T19:51:16.325Z,6.06
2022-12-18T19:53:43.441Z,5.98
2022-12-18T19:56:14.191Z,5.77
2022-12-18T19:58:41.581Z,5.79
2022-12-18T20:01:13.602Z,5.79
2022-12-18T20:03:52.657Z,5.83
2022-12-18T20:06:34.502Z,5.65
2022-12-18T20:09:04.489Z,5.61
2022-12-18T20:11:33.106Z,5.66
2022-12-18T20:14:11.903Z,5.62
2022-12-18T20:16:46.755Z,5.61
2022-12-18T20:19:14.207Z,5.53
2022-12-18T20:21:48.665Z,5.40
2022-12-18T20:24:18.007Z,5.48
2022-12-18T20:26:52.424Z,5.49
2022-12-18T20:29:19.182Z,5.58
2022-12-18T20:31:46.193Z,5.73
2022-12-18T20:34:16.131Z,5.75
2022-12-18T20:36:49.225Z,5.78
2022-12-18T20:39:20.864Z,5.86
2022-12-18T20:41:57.138Z,5.83
2022-12-18T20:44:24.227Z,5.68
2022-12-18T20:47:07.011Z,5.53
2022-12-18T20:49:38.370Z,5.74
2022-12-18T20:52:15.988Z,5.61
2022-12-18T20:54:46.540Z,5.43
2022-12-18T20:57:13.643Z,5.36
2022-12-18T20:59:47.964Z,5.46
2022-12-18T21:02:15.542Z,5.41
2022-12-18T21:04:42.688Z,5.44
2022-12-18T21:07:09.617Z,5.44
2022-12-18T21:09:38.412Z,5.43
2022-12-18T21:12:38.889Z,5.40
2022-12-18T21:15:12.700Z,5.42
2022-12-18T21:17:44.210Z,5.37
2022-12-18T21:20:17.946Z,5.35
2022-12-18T21:22:47.076Z,5.18
2022-12-18T21:25:18.355Z,5.37
2022-12-18T21:27:45.466Z,5.33
2022-12-18T21:30:14.322Z,5.50
2022-12-18T21:32:42.009Z,5.65
2022-12-18T21:35:10.386Z,5.62
2022-12-18T21:37:37.630Z,5.53
2022-12-18T21:40:06.570Z,5.59
2022-12-18T21:42:55.918Z,5.52
2022-12-18T21:45:23.147Z,5.74
2022-12-18T21:47:50.203Z,5.80
2022-12-18T21:50:20.612Z,5.82
2022-12-18T21:52:54.438Z,5.81
2022-12-18T21:55:37.930Z,5.83
2022-12-18T21:58:09.064Z,5.73
2022-12-18T22:00:36.027Z,5.66
2022-12-18T22:03:18.354Z,5.69
2022-12-18T22:05:51.414Z,5.59
2022-12-18T22:08:36.429Z,5.65
2022-12-18T22:11:11.837Z,5.62
2022-12-18T22:13:43.125Z,5.76
2022-12-18T22:16:10.146Z,5.68
2022-12-18T22:18:37.115Z,5.62
2022-12-18T22:21:05.361Z,5.37
2022-12-18T22:23:34.643Z,5.33
2022-12-18T22:26:04.717Z,5.42
2022-12-18T22:28:50.346Z,5.29
2022-12-18T22:31:26.246Z,5.15
2022-12-18T22:33:55.647Z,5.28
2022-12-18T22:36:22.398Z,5.10
2022-12-18T22:38:50.446Z,5.05
2022-12-18T22:41:19.177Z,5.12
2022-12-18T22:43:47.529Z,5.14
2022-12-18T22:46:19.060Z,5.11
2022-12-18T22:48:50.665Z,5.01
2022-12-18T22:51:28.005Z,4.99
2022-12-18T22:53:54.954Z,4.89
2022-12-18T22:56:28.262Z,4.71
2022-12-18T22:58:56.345Z,4.86
2022-12-18T23:01:32.600Z,4.60
2022-12-18T23:04:01.153Z,4.69
2022-12-18T23:06:28.585Z,4.80
2022-12-18T23:08:57.555Z,4.76
2022-12-18T23:11:26.052Z,4.81
2022-12-18T23:13:55.085Z,4.73
2022-12-18T23:16:31.888Z,4.77
2022-12-18T23:18:59.054Z,4.69
2022-12-18T23:21:37.894Z,4.71
2022-12-18T23:31:29.189Z,4.76
2022-12-18T23:34:40.209Z,4.71
2022-12-18T23:37:07.141Z,4.83
2022-12-18T23:39:34.142Z,4.68
2022-12-18T23:45:57.068Z,4.66
2022-12-18T23:48:26.448Z,4.69
2022-12-18T23:51:49.128Z,4.84
2022-12-18T23:54:32.642Z,5.35
2022-12-18T23:57:02.951Z,5.43
2022-12-18T23:59:30.238Z,5.33
